Puto Island — XUTS7 — position and weather

sailwx.info

Track history (hours):
 
Tides and Currents Weather Stations Pressure Air Temp Water Temp Dewpoint Dewpoint Depression Visibility Wind Speed Wind Dir Waves Ship Positions

Puto Island

Last reported at 2014-Sep-20 11:07 UTC. Time now 2014-Oct-02 14:30 UTC.
Position N 34°37' E 134°57'.
Warning: this ship's position is 12 days out of date.

Length 71 m; draft 4 m.

Type: Cargo ship. MMSI: 514198000.

Date/timePositionNaut miles runAvg speedWind from/ knotsBaromVisibWave heightAir tempDewpointWater temp
2014-Sep-20 11:07N 34°37' E 134°57'611.2
2014-Sep-20 10:33N 34°36' E 135°04'1110.5
2014-Sep-20 09:33N 34°36' E 135°17'8 1.8
2014-Sep-20 05:10N 34°38' E 135°26'0 0.0
2014-Sep-20 04:33N 34°38' E 135°26'0 0.0
2014-Sep-20 03:15N 34°38' E 135°26'0 0.0
2014-Sep-19 20:03N 34°38' E 135°26'0 0.0
2014-Sep-19 18:15N 34°38' E 135°26'0 0.0
2014-Sep-19 13:03N 34°38' E 135°26'0 0.0
2014-Sep-18 23:21N 34°38' E 135°26'1 1.5
2014-Sep-18 22:33N 34°39' E 135°26'3 2.2
2014-Sep-18 21:09N 34°37' E 135°23'0 0.0
2014-Sep-18 19:33N 34°37' E 135°23'0 0.0
2014-Sep-18 17:33N 34°37' E 135°23'0 0.1
2014-Sep-18 16:27N 34°37' E 135°23'0 0.0
2014-Sep-18 15:21N 34°37' E 135°23'0 0.0
2014-Sep-18 14:27N 34°37' E 135°23'0 0.0
2014-Sep-18 13:33N 34°37' E 135°23'0 0.0
2014-Sep-18 12:33N 34°37' E 135°23'0 0.0
2014-Sep-18 11:21N 34°37' E 135°23'0 0.0
2014-Sep-18 10:03N 34°37' E 135°23'0 0.0
2014-Sep-18 09:15N 34°37' E 135°23'0 0.0
2014-Sep-18 08:27N 34°37' E 135°23'0 0.1
2014-Sep-18 07:33N 34°37' E 135°23'0 0.0
2014-Sep-18 06:03N 34°37' E 135°23'0 0.0
2014-Sep-18 05:33N 34°37' E 135°23'0 0.0
2014-Sep-18 04:33N 34°37' E 135°23'0 0.0
2014-Sep-18 03:21N 34°37' E 135°23'5 6.4
2014-Sep-18 02:33N 34°36' E 135°17'1110.7
2014-Sep-18 01:33N 34°34' E 135°04'  
2014-Sep-11 18:33N 34°47' E 119°35'8 8.1
2014-Sep-11 17:33N 34°45' E 119°25'0 0.1
2014-Sep-11 16:33N 34°45' E 119°25'0 0.0
2014-Sep-11 15:33N 34°45' E 119°25'0 0.0
2014-Sep-11 14:32N 34°45' E 119°25'0 0.0
2014-Sep-11 13:32N 34°45' E 119°25'0 0.0
2014-Sep-11 12:32N 34°45' E 119°25'0 0.0
2014-Sep-11 11:32N 34°45' E 119°25'0 0.0
2014-Sep-11 10:32N 34°45' E 119°25'0 0.0
2014-Sep-11 09:32N 34°45' E 119°25'0 0.0
2014-Sep-11 08:32N 34°45' E 119°25'0 0.0
2014-Sep-11 07:26N 34°45' E 119°25'0 0.0
2014-Sep-11 06:32N 34°45' E 119°25'0 0.0
2014-Sep-11 05:32N 34°45' E 119°25'0 0.0
2014-Sep-11 04:32N 34°45' E 119°25'0 0.1
2014-Sep-11 03:33N 34°45' E 119°25'10 1.2
2014-Sep-10 18:31N 34°49' E 119°37'0 0.0
2014-Sep-10 15:31N 34°49' E 119°37'  
Track history (hours):
 
Tides and Currents Weather Stations Pressure Air Temp Water Temp Dewpoint Dewpoint Depression Visibility Wind Speed Wind Dir Waves Ship Positions

Puto Island

Last reported at 2014-Sep-20 11:07 UTC. Time now 2014-Oct-02 14:30 UTC.
Position N 34°37' E 134°57'.
Warning: this ship's position is 12 days out of date.

Length 71 m; draft 4 m.

Type: Cargo ship. MMSI: 514198000.

Date/timePositionNaut miles runAvg speedWind from/ knotsBaromVisibWave heightAir tempDewpointWater temp
2014-Sep-20 11:07N 34°37' E 134°57'611.2
2014-Sep-20 10:33N 34°36' E 135°04'1110.5
2014-Sep-20 09:33N 34°36' E 135°17'8 1.8
2014-Sep-20 05:10N 34°38' E 135°26'0 0.0
2014-Sep-20 04:33N 34°38' E 135°26'0 0.0
2014-Sep-20 03:15N 34°38' E 135°26'0 0.0
2014-Sep-19 20:03N 34°38' E 135°26'0 0.0
2014-Sep-19 18:15N 34°38' E 135°26'0 0.0
2014-Sep-19 13:03N 34°38' E 135°26'0 0.0
2014-Sep-18 23:21N 34°38' E 135°26'1 1.5
2014-Sep-18 22:33N 34°39' E 135°26'3 2.2
2014-Sep-18 21:09N 34°37' E 135°23'0 0.0
2014-Sep-18 19:33N 34°37' E 135°23'0 0.0
2014-Sep-18 17:33N 34°37' E 135°23'0 0.1
2014-Sep-18 16:27N 34°37' E 135°23'0 0.0
2014-Sep-18 15:21N 34°37' E 135°23'0 0.0
2014-Sep-18 14:27N 34°37' E 135°23'0 0.0
2014-Sep-18 13:33N 34°37' E 135°23'0 0.0
2014-Sep-18 12:33N 34°37' E 135°23'0 0.0
2014-Sep-18 11:21N 34°37' E 135°23'0 0.0
2014-Sep-18 10:03N 34°37' E 135°23'0 0.0
2014-Sep-18 09:15N 34°37' E 135°23'0 0.0
2014-Sep-18 08:27N 34°37' E 135°23'0 0.1
2014-Sep-18 07:33N 34°37' E 135°23'0 0.0
2014-Sep-18 06:03N 34°37' E 135°23'0 0.0
2014-Sep-18 05:33N 34°37' E 135°23'0 0.0
2014-Sep-18 04:33N 34°37' E 135°23'0 0.0
2014-Sep-18 03:21N 34°37' E 135°23'5 6.4
2014-Sep-18 02:33N 34°36' E 135°17'1110.7
2014-Sep-18 01:33N 34°34' E 135°04'  
2014-Sep-11 18:33N 34°47' E 119°35'8 8.1
2014-Sep-11 17:33N 34°45' E 119°25'0 0.1
2014-Sep-11 16:33N 34°45' E 119°25'0 0.0
2014-Sep-11 15:33N 34°45' E 119°25'0 0.0
2014-Sep-11 14:32N 34°45' E 119°25'0 0.0
2014-Sep-11 13:32N 34°45' E 119°25'0 0.0
2014-Sep-11 12:32N 34°45' E 119°25'0 0.0
2014-Sep-11 11:32N 34°45' E 119°25'0 0.0
2014-Sep-11 10:32N 34°45' E 119°25'0 0.0
2014-Sep-11 09:32N 34°45' E 119°25'0 0.0
2014-Sep-11 08:32N 34°45' E 119°25'0 0.0
2014-Sep-11 07:26N 34°45' E 119°25'0 0.0
2014-Sep-11 06:32N 34°45' E 119°25'0 0.0
2014-Sep-11 05:32N 34°45' E 119°25'0 0.0
2014-Sep-11 04:32N 34°45' E 119°25'0 0.1
2014-Sep-11 03:33N 34°45' E 119°25'10 1.2
2014-Sep-10 18:31N 34°49' E 119°37'0 0.0
2014-Sep-10 15:31N 34°49' E 119°37'  

Dump ship's entire track history